Noel, Missouri
Current Conditions -  °F | °C
As of 1:55 PM on Monday 22 Dec 2014 (Local Time) from KGMJ Reporting Station
Haze Haze  
Wind Chill: 52°   Ceiling: 1500
Heat Index: 52°   Visibility: 2.5mi
Dew Point: 52°   Wind: 6mph
Humidity: 100%   Direction: 200°SSW
Pressure: 29.51"   Gusts: NA
Location:  36.55°N, 94.49°W
Report Text: KGMJ 221955Z AUTO 20005KT 2 1/2SM BR SCT008 BKN015 OVC022 11/11 A2951 RMK AO2
Loading
Personal Weather Stations






























Interactive Weather Map New forecast layout! Learn more

10-Day Weather Forecast

Advertisements
Track Severe Weather on mobile